createdAt,value
2023-05-01T00:00:29.811Z,0.00
2023-05-01T00:01:29.809Z,0.00
2023-05-01T00:02:29.859Z,0.00
2023-05-01T00:03:29.892Z,0.00
2023-05-01T00:04:29.804Z,0.00
2023-05-01T00:05:29.811Z,0.00
2023-05-01T00:06:29.827Z,0.00
2023-05-01T00:07:29.732Z,0.00
2023-05-01T00:08:29.715Z,0.00
2023-05-01T00:09:29.732Z,0.00
2023-05-01T00:10:29.689Z,0.00
2023-05-01T00:11:29.784Z,0.00
2023-05-01T00:12:29.668Z,0.00
2023-05-01T00:13:29.657Z,0.00
2023-05-01T00:14:29.644Z,0.00
2023-05-01T00:15:29.640Z,0.00
2023-05-01T00:16:29.663Z,0.00
2023-05-01T00:17:29.633Z,0.00
2023-05-01T00:18:29.608Z,0.00
2023-05-01T00:19:29.599Z,0.00
2023-05-01T00:20:29.603Z,0.00
2023-05-01T00:21:29.588Z,0.00
2023-05-01T00:22:29.578Z,0.00
2023-05-01T00:23:29.545Z,0.00
2023-05-01T00:24:29.538Z,0.00
2023-05-01T00:25:29.531Z,0.00
2023-05-01T00:26:29.528Z,0.00
2023-05-01T00:27:29.512Z,0.00
2023-05-01T00:28:29.532Z,0.00
2023-05-01T00:29:29.489Z,0.00
2023-05-01T00:30:29.485Z,0.00
2023-05-01T00:31:29.566Z,0.00
2023-05-01T00:32:29.619Z,0.00
2023-05-01T00:33:29.449Z,0.00
2023-05-01T00:34:29.430Z,0.00
2023-05-01T00:35:29.432Z,0.00
2023-05-01T00:36:29.442Z,0.00
2023-05-01T00:37:29.431Z,0.00
2023-05-01T00:38:29.389Z,0.00
2023-05-01T00:39:29.383Z,0.00
2023-05-01T00:40:29.369Z,0.00
2023-05-01T00:41:29.406Z,0.00
2023-05-01T00:42:29.351Z,0.00
2023-05-01T00:43:29.393Z,0.00
2023-05-01T00:44:29.333Z,0.00
2023-05-01T00:45:29.350Z,0.00
2023-05-01T00:46:29.348Z,0.00
2023-05-01T00:47:29.335Z,0.00
2023-05-01T00:48:29.294Z,0.00
2023-05-01T00:49:29.313Z,0.00
2023-05-01T00:50:29.261Z,0.00
2023-05-01T00:51:29.295Z,0.00
2023-05-01T00:52:29.280Z,0.00
2023-05-01T00:53:29.268Z,0.00
2023-05-01T00:54:29.223Z,0.00
2023-05-01T00:55:29.218Z,0.00
2023-05-01T00:56:29.222Z,0.00
2023-05-01T00:57:29.214Z,0.00
2023-05-01T00:58:29.184Z,0.00
2023-05-01T00:59:29.169Z,0.00
2023-05-01T01:00:29.188Z,0.00
2023-05-01T01:01:29.214Z,0.00
2023-05-01T01:02:29.179Z,0.00
2023-05-01T01:03:29.117Z,0.00
2023-05-01T01:04:29.181Z,0.00
2023-05-01T01:05:29.157Z,0.00
2023-05-01T01:06:29.233Z,0.00
2023-05-01T01:07:29.086Z,0.00
2023-05-01T01:08:30.683Z,0.00
2023-05-01T01:09:29.088Z,0.00
2023-05-01T01:10:29.075Z,0.00
2023-05-01T01:11:29.064Z,0.00
2023-05-01T01:12:29.023Z,0.00
2023-05-01T01:13:29.026Z,0.00
2023-05-01T01:14:29.040Z,0.00
2023-05-01T01:15:29.013Z,0.00
2023-05-01T01:16:29.039Z,0.00
2023-05-01T01:17:29.000Z,0.00
2023-05-01T01:18:28.963Z,0.00
2023-05-01T01:19:28.946Z,0.00
2023-05-01T01:20:28.947Z,0.00
2023-05-01T01:21:28.942Z,0.00
2023-05-01T01:22:28.930Z,0.00
2023-05-01T01:23:28.929Z,0.00
2023-05-01T01:24:28.932Z,0.00
2023-05-01T01:25:28.905Z,0.00
2023-05-01T01:26:28.881Z,0.00
2023-05-01T01:27:28.881Z,0.00
2023-05-01T01:28:28.903Z,0.00
2023-05-01T01:29:28.848Z,0.00
2023-05-01T01:30:28.862Z,0.00
2023-05-01T01:31:28.917Z,0.00
2023-05-01T01:32:28.903Z,0.00
2023-05-01T01:33:28.799Z,0.00
2023-05-01T01:34:28.799Z,0.00
2023-05-01T01:35:28.845Z,0.00
2023-05-01T01:36:28.784Z,0.00
2023-05-01T01:37:28.758Z,0.00
2023-05-01T01:38:28.759Z,0.00
2023-05-01T01:39:28.730Z,0.00
2023-05-01T01:40:28.809Z,0.00
2023-05-01T01:41:28.707Z,0.00
2023-05-01T01:42:28.715Z,0.00
2023-05-01T01:43:28.711Z,0.00
2023-05-01T01:44:28.681Z,0.00
2023-05-01T01:45:28.700Z,0.00
2023-05-01T01:46:28.693Z,0.00
2023-05-01T01:47:28.724Z,0.00
2023-05-01T01:48:28.649Z,0.00
2023-05-01T01:49:28.631Z,0.00
2023-05-01T01:50:28.691Z,0.00
2023-05-01T01:51:28.606Z,0.00
2023-05-01T01:52:28.616Z,0.00
2023-05-01T01:53:28.607Z,0.00
2023-05-01T01:54:28.574Z,0.00
2023-05-01T01:55:28.564Z,0.00
2023-05-01T01:56:28.575Z,0.00
2023-05-01T01:57:28.539Z,0.00
2023-05-01T01:58:28.532Z,0.00
2023-05-01T01:59:28.517Z,0.00
2023-05-01T02:00:28.517Z,0.00
2023-05-01T02:01:28.551Z,0.00
2023-05-01T02:02:28.577Z,0.00
2023-05-01T02:03:28.548Z,0.00
2023-05-01T02:04:28.471Z,0.00
2023-05-01T02:05:28.466Z,0.00
2023-05-01T02:06:28.526Z,0.00
2023-05-01T02:07:28.430Z,0.00
2023-05-01T02:08:28.440Z,0.00
2023-05-01T02:09:28.413Z,0.00
2023-05-01T02:10:28.405Z,0.00
2023-05-01T02:11:28.461Z,0.00
2023-05-01T02:12:28.393Z,0.00
2023-05-01T02:13:28.371Z,0.00
2023-05-01T02:14:28.363Z,0.00
2023-05-01T02:15:28.375Z,0.00
2023-05-01T02:16:28.353Z,0.00
2023-05-01T02:17:28.366Z,0.00
2023-05-01T02:18:28.329Z,0.00
2023-05-01T02:19:28.467Z,0.00
2023-05-01T02:20:28.365Z,0.00
2023-05-01T02:21:28.310Z,0.00
2023-05-01T02:22:28.272Z,0.00
2023-05-01T02:23:28.271Z,0.00
2023-05-01T02:24:28.262Z,0.00
2023-05-01T02:25:29.558Z,0.00
2023-05-01T02:26:28.260Z,0.00
2023-05-01T02:27:28.228Z,0.00
2023-05-01T02:28:28.222Z,0.00
2023-05-01T02:29:28.245Z,0.00
2023-05-01T02:30:28.223Z,0.00
2023-05-01T02:31:28.225Z,0.00
2023-05-01T02:32:28.280Z,0.00
2023-05-01T02:33:28.164Z,0.00
2023-05-01T02:34:28.163Z,0.00
2023-05-01T02:35:28.159Z,0.00
2023-05-01T02:36:28.140Z,0.00
2023-05-01T02:37:28.114Z,0.00
2023-05-01T02:38:28.104Z,0.00
2023-05-01T02:39:28.098Z,0.00
2023-05-01T02:40:28.095Z,0.00
2023-05-01T02:41:28.078Z,0.00
2023-05-01T02:42:28.068Z,0.00
2023-05-01T02:43:28.044Z,0.00
2023-05-01T02:44:28.044Z,0.00
2023-05-01T02:45:28.085Z,0.00
2023-05-01T02:46:28.059Z,0.00
2023-05-01T02:47:28.105Z,0.00
2023-05-01T02:48:27.990Z,0.00
2023-05-01T02:49:27.985Z,0.00
2023-05-01T02:50:28.004Z,0.00
2023-05-01T02:51:27.963Z,0.00
2023-05-01T02:52:27.966Z,0.00
2023-05-01T02:53:27.941Z,0.00
2023-05-01T02:54:27.944Z,0.00
2023-05-01T02:55:27.952Z,0.00
2023-05-01T02:56:27.949Z,0.00
2023-05-01T02:57:27.911Z,0.00
2023-05-01T02:58:27.899Z,0.00
2023-05-01T02:59:27.877Z,0.00
2023-05-01T03:00:27.891Z,0.00
2023-05-01T03:01:28.000Z,0.00
2023-05-01T03:02:27.812Z,0.00
2023-05-01T03:03:27.810Z,0.00
2023-05-01T03:04:27.874Z,0.00
2023-05-01T03:05:27.832Z,0.00
2023-05-01T03:06:27.777Z,0.00
2023-05-01T03:07:27.739Z,0.00
2023-05-01T03:08:27.731Z,0.00
2023-05-01T03:09:27.773Z,0.00
2023-05-01T03:10:27.805Z,0.00
2023-05-01T03:11:27.810Z,0.00
2023-05-01T03:12:27.689Z,0.00
2023-05-01T03:13:27.672Z,0.00
2023-05-01T03:14:27.659Z,0.00
2023-05-01T03:15:27.658Z,0.00
2023-05-01T03:16:27.710Z,0.00
2023-05-01T03:17:27.661Z,0.00
2023-05-01T03:18:27.625Z,0.00
2023-05-01T03:19:27.622Z,0.00
2023-05-01T03:20:27.770Z,0.00
2023-05-01T03:21:27.578Z,0.00
2023-05-01T03:22:27.589Z,0.00
2023-05-01T03:23:27.554Z,0.00
2023-05-01T03:24:27.550Z,0.00
2023-05-01T03:25:27.558Z,0.00
2023-05-01T03:26:27.531Z,0.00
2023-05-01T03:27:27.513Z,0.00
2023-05-01T03:28:27.548Z,0.00
2023-05-01T03:29:27.501Z,0.00
2023-05-01T03:30:27.504Z,0.00
2023-05-01T03:31:27.532Z,0.00
2023-05-01T03:32:27.555Z,0.00
2023-05-01T03:33:27.466Z,0.00
2023-05-01T03:34:27.461Z,0.00
2023-05-01T03:35:27.533Z,0.00
2023-05-01T03:36:27.423Z,0.00
2023-05-01T03:37:27.400Z,0.00
2023-05-01T03:38:27.414Z,0.00
2023-05-01T03:39:27.374Z,0.00
2023-05-01T03:40:27.380Z,0.00
2023-05-01T03:41:27.368Z,0.00
2023-05-01T03:42:27.349Z,0.00
2023-05-01T03:43:27.344Z,0.00
2023-05-01T03:44:27.342Z,0.00
2023-05-01T03:45:27.357Z,0.00
2023-05-01T03:46:27.386Z,0.00
2023-05-01T03:47:27.327Z,0.00
2023-05-01T03:48:27.295Z,0.00
2023-05-01T03:49:27.300Z,5.62
2023-05-01T03:50:27.415Z,5.62
2023-05-01T03:51:27.265Z,5.62
2023-05-01T03:52:27.248Z,5.62
2023-05-01T03:53:27.243Z,5.62
2023-05-01T03:54:27.221Z,5.62
2023-05-01T03:55:27.220Z,5.62
2023-05-01T03:56:27.203Z,5.62
2023-05-01T03:57:27.200Z,5.62
2023-05-01T03:58:27.181Z,5.62
2023-05-01T03:59:27.167Z,5.62
2023-05-01T04:00:27.194Z,5.62
2023-05-01T04:01:27.146Z,5.62
2023-05-01T04:02:27.220Z,5.62
2023-05-01T04:03:27.337Z,5.62
2023-05-01T04:04:27.165Z,11.25
2023-05-01T04:05:27.125Z,11.25
2023-05-01T04:06:27.184Z,11.25
2023-05-01T04:07:27.093Z,11.25
2023-05-01T04:08:27.081Z,11.25
2023-05-01T04:09:27.076Z,11.25
2023-05-01T04:10:27.068Z,11.25
2023-05-01T04:11:27.072Z,11.25
2023-05-01T04:12:27.046Z,11.25
2023-05-01T04:13:27.028Z,11.25
2023-05-01T04:14:27.089Z,11.25
2023-05-01T04:15:27.019Z,11.25
2023-05-01T04:16:27.055Z,11.25
2023-05-01T04:17:26.973Z,11.25
2023-05-01T04:18:26.969Z,11.25
2023-05-01T04:19:26.992Z,11.25
2023-05-01T04:20:26.973Z,16.88
2023-05-01T04:21:26.932Z,16.88
2023-05-01T04:22:27.117Z,16.88
2023-05-01T04:23:26.913Z,16.88
2023-05-01T04:24:26.899Z,16.88
2023-05-01T04:25:26.902Z,16.88
2023-05-01T04:26:26.900Z,16.88
2023-05-01T04:27:26.871Z,16.88
2023-05-01T04:28:26.867Z,16.88
2023-05-01T04:29:26.855Z,16.88
2023-05-01T04:30:26.831Z,16.88
2023-05-01T04:31:26.887Z,16.88
2023-05-01T04:32:27.180Z,16.88
2023-05-01T04:33:26.802Z,16.88
2023-05-01T04:34:26.809Z,16.88
2023-05-01T04:35:26.817Z,16.88
2023-05-01T04:36:26.781Z,16.88
2023-05-01T04:37:26.765Z,16.88
2023-05-01T04:38:26.754Z,22.50
2023-05-01T04:39:26.741Z,22.50
2023-05-01T04:40:26.743Z,16.88
2023-05-01T04:41:26.706Z,16.88
2023-05-01T04:42:26.713Z,22.50
2023-05-01T04:43:26.704Z,22.50
2023-05-01T04:44:26.679Z,22.50
2023-05-01T04:45:26.684Z,22.50
2023-05-01T04:46:26.689Z,22.50
2023-05-01T04:47:26.646Z,22.50
2023-05-01T04:48:26.662Z,22.50
2023-05-01T04:49:26.646Z,22.50
2023-05-01T04:50:26.623Z,22.50
2023-05-01T04:51:26.603Z,22.50
2023-05-01T04:52:26.681Z,22.50
2023-05-01T04:53:26.627Z,22.50
2023-05-01T04:54:26.611Z,22.50
2023-05-01T04:55:27.396Z,22.50
2023-05-01T04:56:26.559Z,22.50
2023-05-01T04:57:26.542Z,22.50
2023-05-01T04:58:26.549Z,22.50
2023-05-01T04:59:26.529Z,22.50
2023-05-01T05:00:26.525Z,22.50
2023-05-01T05:01:26.598Z,22.50
2023-05-01T05:02:26.570Z,22.50
2023-05-01T05:03:26.602Z,22.50
2023-05-01T05:04:26.481Z,28.12
2023-05-01T05:05:26.478Z,28.12
2023-05-01T05:06:26.506Z,28.12
2023-05-01T05:07:26.442Z,28.12
2023-05-01T05:08:26.440Z,28.12
2023-05-01T05:09:26.409Z,28.12
2023-05-01T05:10:26.426Z,28.12
2023-05-01T05:11:26.409Z,28.12
2023-05-01T05:12:26.395Z,28.12
2023-05-01T05:13:26.444Z,28.12
2023-05-01T05:14:26.366Z,28.12
2023-05-01T05:15:26.366Z,28.12
2023-05-01T05:16:26.364Z,28.12
2023-05-01T05:17:26.321Z,28.12
2023-05-01T05:18:26.317Z,28.12
2023-05-01T05:19:26.304Z,28.12
2023-05-01T05:20:26.300Z,33.75
2023-05-01T05:21:26.300Z,33.75
2023-05-01T05:22:26.275Z,28.12
2023-05-01T05:23:26.259Z,33.75
2023-05-01T05:24:26.242Z,33.75
2023-05-01T05:25:26.245Z,33.75
2023-05-01T05:26:26.213Z,33.75
2023-05-01T05:27:26.226Z,33.75
2023-05-01T05:28:26.209Z,33.75
2023-05-01T05:29:26.202Z,33.75
2023-05-01T05:30:26.190Z,33.75
2023-05-01T05:31:26.216Z,33.75
2023-05-01T05:32:26.378Z,33.75
2023-05-01T05:33:26.197Z,33.75
2023-05-01T05:34:26.131Z,33.75
2023-05-01T05:35:26.163Z,33.75
2023-05-01T05:36:26.146Z,33.75
2023-05-01T05:37:26.129Z,33.75
2023-05-01T05:38:26.094Z,39.38
2023-05-01T05:39:26.090Z,39.38
2023-05-01T05:40:26.114Z,39.38
2023-05-01T05:41:26.070Z,39.38
2023-05-01T05:42:26.072Z,39.38
2023-05-01T05:43:27.998Z,39.38
2023-05-01T05:44:26.068Z,39.38
2023-05-01T05:45:26.030Z,39.38
2023-05-01T05:46:26.107Z,39.38
2023-05-01T05:47:26.048Z,39.38
2023-05-01T05:48:26.020Z,39.38
2023-05-01T05:49:25.994Z,39.38
2023-05-01T05:50:25.982Z,39.38
2023-05-01T05:51:25.959Z,39.38
2023-05-01T05:52:25.948Z,39.38
2023-05-01T05:53:26.403Z,39.38
2023-05-01T05:54:25.950Z,39.38
2023-05-01T05:55:25.921Z,39.38
2023-05-01T05:56:25.924Z,39.38
2023-05-01T05:57:25.897Z,39.38
2023-05-01T05:58:25.891Z,39.38
2023-05-01T05:59:25.893Z,39.38
2023-05-01T06:00:25.862Z,39.38
2023-05-01T06:01:25.865Z,39.38
2023-05-01T06:02:25.990Z,45.00
2023-05-01T06:03:25.940Z,45.00
2023-05-01T06:04:25.864Z,45.00
2023-05-01T06:05:25.897Z,45.00
2023-05-01T06:06:25.861Z,45.00
2023-05-01T06:07:25.812Z,45.00
2023-05-01T06:08:25.790Z,45.00
2023-05-01T06:09:25.795Z,45.00
2023-05-01T06:10:25.761Z,45.00
2023-05-01T06:11:25.749Z,45.00
2023-05-01T06:12:25.726Z,45.00
2023-05-01T06:13:25.740Z,45.00
2023-05-01T06:14:25.743Z,45.00
2023-05-01T06:15:25.708Z,45.00
2023-05-01T06:16:25.760Z,45.00
2023-05-01T06:17:25.694Z,45.00
2023-05-01T06:18:25.668Z,50.62
2023-05-01T06:19:25.689Z,50.62
2023-05-01T06:20:25.654Z,50.62
2023-05-01T06:21:25.660Z,50.62
2023-05-01T06:22:25.654Z,50.62
2023-05-01T06:23:25.629Z,50.62
2023-05-01T06:24:25.635Z,50.62
2023-05-01T06:25:25.602Z,50.62
2023-05-01T06:26:25.582Z,50.62
2023-05-01T06:27:25.590Z,50.62
2023-05-01T06:28:25.569Z,50.62
2023-05-01T06:29:25.596Z,50.62
2023-05-01T06:30:25.557Z,50.62
2023-05-01T06:31:25.602Z,50.62
2023-05-01T06:32:25.581Z,50.62
2023-05-01T06:33:25.528Z,50.62
2023-05-01T06:34:25.518Z,50.62
2023-05-01T06:35:25.526Z,50.62
2023-05-01T06:36:25.476Z,56.25
2023-05-01T06:37:25.466Z,56.25
2023-05-01T06:38:27.005Z,56.25
2023-05-01T06:39:25.469Z,56.25
2023-05-01T06:40:25.439Z,56.25
2023-05-01T06:41:25.437Z,56.25
2023-05-01T06:42:25.414Z,56.25
2023-05-01T06:43:25.409Z,56.25
2023-05-01T06:44:25.412Z,56.25
2023-05-01T06:45:25.381Z,56.25
2023-05-01T06:46:25.406Z,56.25
2023-05-01T06:47:25.377Z,61.88
2023-05-01T06:48:25.376Z,61.88
2023-05-01T06:49:25.384Z,61.88
2023-05-01T06:50:25.367Z,61.88
2023-05-01T06:51:25.319Z,61.88
2023-05-01T06:52:25.302Z,61.88
2023-05-01T06:53:25.305Z,61.88
2023-05-01T06:54:25.310Z,61.88
2023-05-01T06:55:25.284Z,67.50
2023-05-01T06:56:25.257Z,67.50
2023-05-01T06:57:25.271Z,67.50
2023-05-01T06:58:25.237Z,67.50
2023-05-01T06:59:25.263Z,67.50
2023-05-01T07:00:25.234Z,67.50
2023-05-01T07:01:25.259Z,67.50
2023-05-01T07:02:25.214Z,67.50
2023-05-01T07:03:25.280Z,67.50
2023-05-01T07:04:25.207Z,67.50
2023-05-01T07:05:25.190Z,67.50
2023-05-01T07:06:25.248Z,67.50
2023-05-01T07:07:25.168Z,67.50
2023-05-01T07:08:25.150Z,67.50
2023-05-01T07:09:25.162Z,73.12
2023-05-01T07:10:25.128Z,73.12
2023-05-01T07:11:25.106Z,73.12
2023-05-01T07:12:25.091Z,78.75
2023-05-01T07:13:25.115Z,78.75
2023-05-01T07:14:25.116Z,78.75
2023-05-01T07:15:25.079Z,84.38
2023-05-01T07:16:25.095Z,84.38
2023-05-01T07:17:25.103Z,84.38
2023-05-01T07:18:25.043Z,78.75
2023-05-01T07:19:25.033Z,84.38
2023-05-01T07:20:25.079Z,84.38
2023-05-01T07:21:25.003Z,84.38
2023-05-01T07:22:24.987Z,84.38
2023-05-01T07:23:24.982Z,90.00
2023-05-01T07:24:25.019Z,95.62
2023-05-01T07:25:24.981Z,95.62
2023-05-01T07:26:24.959Z,101.25
2023-05-01T07:27:24.942Z,101.25
2023-05-01T07:28:24.923Z,101.25
2023-05-01T07:29:24.963Z,101.25
2023-05-01T07:30:24.901Z,101.25
2023-05-01T07:31:24.931Z,101.25
2023-05-01T07:32:24.893Z,106.88
2023-05-01T07:33:24.967Z,106.88
2023-05-01T07:34:24.894Z,112.50
2023-05-01T07:35:24.863Z,112.50
2023-05-01T07:36:24.851Z,118.12
2023-05-01T07:37:24.833Z,123.75
2023-05-01T07:38:24.872Z,129.38
2023-05-01T07:39:24.826Z,135.00
2023-05-01T07:40:24.853Z,146.25
2023-05-01T07:41:24.804Z,151.88
2023-05-01T07:42:24.796Z,163.12
2023-05-01T07:43:24.775Z,157.50
2023-05-01T07:44:24.776Z,151.88
2023-05-01T07:45:24.757Z,140.62
2023-05-01T07:46:24.811Z,135.00
2023-05-01T07:47:24.843Z,129.38
2023-05-01T07:48:24.750Z,129.38
2023-05-01T07:49:24.754Z,129.38
2023-05-01T07:50:24.749Z,129.38
2023-05-01T07:51:24.714Z,123.75
2023-05-01T07:52:24.658Z,123.75
2023-05-01T07:53:24.681Z,129.38
2023-05-01T07:54:24.697Z,129.38
2023-05-01T07:55:24.660Z,129.38
2023-05-01T07:56:24.698Z,129.38
2023-05-01T07:57:24.616Z,135.00
2023-05-01T07:58:24.650Z,146.25
2023-05-01T07:59:24.624Z,151.88
2023-05-01T08:00:24.639Z,157.50
2023-05-01T08:01:24.598Z,157.50
2023-05-01T08:02:24.672Z,163.12
2023-05-01T08:03:24.742Z,168.75
2023-05-01T08:04:24.644Z,168.75
2023-05-01T08:05:24.556Z,168.75
2023-05-01T08:06:24.583Z,174.38
2023-05-01T08:07:24.513Z,174.38
2023-05-01T08:08:24.526Z,180.00
2023-05-01T08:09:24.517Z,174.38
2023-05-01T08:10:24.511Z,174.38
2023-05-01T08:11:24.493Z,174.38
2023-05-01T08:12:24.456Z,174.38
2023-05-01T08:13:24.471Z,174.38
2023-05-01T08:14:24.502Z,180.00
2023-05-01T08:15:24.459Z,185.62
2023-05-01T08:16:24.481Z,185.62
2023-05-01T08:17:24.495Z,191.25
2023-05-01T08:18:24.385Z,185.62
2023-05-01T08:19:24.445Z,185.62
2023-05-01T08:20:24.367Z,163.12
2023-05-01T08:21:24.368Z,196.88
2023-05-01T08:22:24.351Z,230.62
2023-05-01T08:23:24.350Z,292.50
2023-05-01T08:24:24.516Z,410.62
2023-05-01T08:25:24.377Z,444.38
2023-05-01T08:26:24.336Z,545.62
2023-05-01T08:27:24.302Z,489.38
2023-05-01T08:28:24.291Z,568.12
2023-05-01T08:29:24.318Z,540.00
2023-05-01T08:30:24.274Z,478.12
2023-05-01T08:31:24.278Z,393.75
2023-05-01T08:32:24.320Z,427.50
2023-05-01T08:33:24.235Z,579.38
2023-05-01T08:34:24.292Z,461.25
2023-05-01T08:35:24.245Z,393.75
2023-05-01T08:36:24.244Z,326.25
2023-05-01T08:37:24.243Z,298.12
2023-05-01T08:38:24.203Z,247.50
2023-05-01T08:39:24.210Z,315.00
2023-05-01T08:40:24.164Z,399.38
2023-05-01T08:41:24.159Z,410.62
2023-05-01T08:42:24.135Z,416.25
2023-05-01T08:43:24.181Z,405.00
2023-05-01T08:44:24.148Z,405.00
2023-05-01T08:45:24.132Z,517.50
2023-05-01T08:46:24.156Z,635.62
2023-05-01T08:47:24.123Z,748.12
2023-05-01T08:48:24.071Z,714.38
2023-05-01T08:49:24.097Z,680.62
2023-05-01T08:50:24.070Z,759.38
2023-05-01T08:51:24.047Z,601.88
2023-05-01T08:52:24.032Z,765.00
2023-05-01T08:53:24.072Z,618.75
2023-05-01T08:54:24.057Z,455.62
2023-05-01T08:55:24.015Z,371.25
2023-05-01T08:56:23.990Z,376.88
2023-05-01T08:57:23.993Z,376.88
2023-05-01T08:58:23.979Z,337.50
2023-05-01T08:59:23.969Z,528.75
2023-05-01T09:00:23.952Z,354.38
2023-05-01T09:01:23.967Z,281.25
2023-05-01T09:02:24.001Z,495.00
2023-05-01T09:03:23.998Z,596.25
2023-05-01T09:04:24.080Z,489.38
2023-05-01T09:05:23.906Z,483.75
2023-05-01T09:06:23.938Z,405.00
2023-05-01T09:07:23.943Z,478.12
2023-05-01T09:08:23.855Z,483.75
2023-05-01T09:09:23.886Z,421.88
2023-05-01T09:10:23.872Z,371.25
2023-05-01T09:11:23.843Z,450.00
2023-05-01T09:12:23.818Z,466.88
2023-05-01T09:13:23.835Z,523.12
2023-05-01T09:14:23.901Z,545.62
2023-05-01T09:15:23.795Z,489.38
2023-05-01T09:16:23.796Z,534.38
2023-05-01T09:17:23.820Z,652.50
2023-05-01T09:18:23.759Z,601.88
2023-05-01T09:19:23.786Z,562.50
2023-05-01T09:20:23.741Z,731.25
2023-05-01T09:21:23.728Z,759.38
2023-05-01T09:22:23.723Z,697.50
2023-05-01T09:23:23.729Z,528.75
2023-05-01T09:24:23.756Z,399.38
2023-05-01T09:25:23.762Z,455.62
2023-05-01T09:26:23.705Z,253.12
2023-05-01T09:27:23.666Z,247.50
2023-05-01T09:28:23.674Z,247.50
2023-05-01T09:29:23.685Z,472.50
2023-05-01T09:30:23.639Z,495.00
2023-05-01T09:31:23.744Z,500.62
2023-05-01T09:32:23.710Z,275.62
2023-05-01T09:33:23.637Z,388.12
2023-05-01T09:34:23.642Z,309.38
2023-05-01T09:35:23.602Z,382.50
2023-05-01T09:36:23.579Z,421.88
2023-05-01T09:37:23.563Z,478.12
2023-05-01T09:38:23.587Z,500.62
2023-05-01T09:39:23.562Z,652.50
2023-05-01T09:40:23.550Z,646.88
2023-05-01T09:41:23.569Z,781.88
2023-05-01T09:42:23.514Z,759.38
2023-05-01T09:43:23.501Z,658.12
2023-05-01T09:44:23.495Z,663.75
2023-05-01T09:45:23.768Z,523.12
2023-05-01T09:46:23.500Z,663.75
2023-05-01T09:47:23.483Z,877.50
2023-05-01T09:48:23.443Z,742.50
2023-05-01T09:49:23.469Z,753.75
2023-05-01T09:50:23.439Z,759.38
2023-05-01T09:51:23.442Z,770.62
2023-05-01T09:52:23.409Z,725.62
2023-05-01T09:53:23.410Z,247.50
2023-05-01T09:54:23.417Z,270.00
2023-05-01T09:55:25.446Z,360.00
2023-05-01T09:56:23.373Z,663.75
2023-05-01T09:57:23.360Z,663.75
2023-05-01T09:58:23.373Z,421.88
2023-05-01T09:59:23.367Z,455.62
2023-05-01T10:00:23.349Z,545.62
2023-05-01T10:01:23.337Z,264.38
2023-05-01T10:02:23.449Z,264.38
2023-05-01T10:03:23.446Z,343.12
2023-05-01T10:04:23.433Z,511.88
2023-05-01T10:05:23.274Z,658.12
2023-05-01T10:06:23.325Z,742.50
2023-05-01T10:07:23.252Z,646.88
2023-05-01T10:08:23.244Z,573.75
2023-05-01T10:09:23.292Z,450.00
2023-05-01T10:10:23.254Z,163.12
2023-05-01T10:11:23.209Z,185.62
2023-05-01T10:12:23.345Z,146.25
2023-05-01T10:13:23.184Z,146.25
2023-05-01T10:14:23.214Z,286.88
2023-05-01T10:15:26.590Z,922.50
2023-05-01T10:16:23.291Z,911.25
2023-05-01T10:17:23.161Z,961.88
2023-05-01T10:18:23.162Z,596.25
2023-05-01T10:19:23.369Z,815.62
2023-05-01T10:20:23.165Z,826.88
2023-05-01T10:21:23.181Z,832.50
2023-05-01T10:22:23.103Z,961.88
2023-05-01T10:23:23.102Z,1186.88
2023-05-01T10:24:23.121Z,1125.00
2023-05-01T10:25:23.069Z,1091.25
2023-05-01T10:26:23.096Z,916.88
2023-05-01T10:27:23.080Z,646.88
2023-05-01T10:28:23.036Z,804.38
2023-05-01T10:29:23.058Z,725.62
2023-05-01T10:30:23.034Z,652.50
2023-05-01T10:31:23.056Z,725.62
2023-05-01T10:32:22.995Z,556.88
2023-05-01T10:33:23.023Z,483.75
2023-05-01T10:34:23.084Z,433.12
2023-05-01T10:35:22.991Z,478.12
2023-05-01T10:36:22.978Z,343.12
2023-05-01T10:37:22.964Z,635.62
2023-05-01T10:38:22.934Z,646.88
2023-05-01T10:39:22.943Z,466.88
2023-05-01T10:40:22.953Z,326.25
2023-05-01T10:41:22.917Z,236.25
2023-05-01T10:42:22.890Z,236.25
2023-05-01T10:43:22.901Z,343.12
2023-05-01T10:44:22.942Z,781.88
2023-05-01T10:45:22.888Z,720.00
2023-05-01T10:46:22.916Z,635.62
2023-05-01T10:47:22.862Z,534.38
2023-05-01T10:48:22.843Z,427.50
2023-05-01T10:49:22.838Z,388.12
2023-05-01T10:50:22.859Z,388.12
2023-05-01T10:51:24.958Z,461.25
2023-05-01T10:52:22.801Z,371.25
2023-05-01T10:53:22.767Z,388.12
2023-05-01T10:54:22.859Z,556.88
2023-05-01T10:55:22.749Z,573.75
2023-05-01T10:56:22.745Z,275.62
2023-05-01T10:57:22.732Z,264.38
2023-05-01T10:58:22.731Z,253.12
2023-05-01T10:59:22.740Z,253.12
2023-05-01T11:00:22.703Z,298.12
2023-05-01T11:01:22.733Z,658.12
2023-05-01T11:02:22.902Z,675.00
2023-05-01T11:03:22.692Z,635.62
2023-05-01T11:04:22.748Z,461.25
2023-05-01T11:05:35.799Z,410.62
2023-05-01T11:06:22.770Z,292.50
2023-05-01T11:07:22.808Z,236.25
2023-05-01T11:08:22.638Z,253.12
2023-05-01T11:09:22.666Z,360.00
2023-05-01T11:10:22.620Z,495.00
2023-05-01T11:11:22.591Z,528.75
2023-05-01T11:12:22.580Z,427.50
2023-05-01T11:13:22.585Z,275.62
2023-05-01T11:14:22.574Z,281.25
2023-05-01T11:15:22.551Z,241.88
2023-05-01T11:16:22.587Z,219.38
2023-05-01T11:17:22.574Z,202.50
2023-05-01T11:18:22.517Z,208.12
2023-05-01T11:19:22.545Z,208.12
2023-05-01T11:20:22.506Z,247.50
2023-05-01T11:21:22.490Z,230.62
2023-05-01T11:22:22.502Z,236.25
2023-05-01T11:23:22.464Z,191.25
2023-05-01T11:24:22.508Z,247.50
2023-05-01T11:25:22.443Z,275.62
2023-05-01T11:26:22.488Z,315.00
2023-05-01T11:27:22.431Z,230.62
2023-05-01T11:28:22.445Z,236.25
2023-05-01T11:29:22.402Z,230.62
2023-05-01T11:30:22.396Z,253.12
2023-05-01T11:31:22.414Z,281.25
2023-05-01T11:32:22.436Z,309.38
2023-05-01T11:33:22.395Z,354.38
2023-05-01T11:34:22.400Z,410.62
2023-05-01T11:35:22.359Z,517.50
2023-05-01T11:36:22.324Z,393.75
2023-05-01T11:37:22.327Z,421.88
2023-05-01T11:38:22.321Z,517.50
2023-05-01T11:39:22.341Z,478.12
2023-05-01T11:40:22.303Z,500.62
2023-05-01T11:41:22.268Z,343.12
2023-05-01T11:42:22.353Z,247.50
2023-05-01T11:43:22.255Z,264.38
2023-05-01T11:44:22.280Z,365.62
2023-05-01T11:45:22.241Z,618.75
2023-05-01T11:46:22.314Z,714.38
2023-05-01T11:47:22.286Z,691.88
2023-05-01T11:48:22.205Z,680.62
2023-05-01T11:49:22.242Z,596.25
2023-05-01T11:50:22.202Z,641.25
2023-05-01T11:51:22.205Z,607.50
2023-05-01T11:52:22.162Z,478.12
2023-05-01T11:53:22.155Z,703.12
2023-05-01T11:54:22.174Z,742.50
2023-05-01T11:55:22.137Z,714.38
2023-05-01T11:57:22.157Z,421.88
2023-05-01T11:58:22.110Z,528.75
2023-05-01T11:59:22.150Z,450.00
2023-05-01T12:00:22.085Z,393.75
2023-05-01T12:01:22.081Z,286.88
2023-05-01T12:02:22.083Z,230.62
2023-05-01T12:03:22.348Z,225.00
2023-05-01T12:04:22.119Z,270.00
2023-05-01T12:05:22.046Z,579.38
2023-05-01T12:06:22.068Z,697.50
2023-05-01T12:07:22.020Z,585.00
2023-05-01T12:08:21.995Z,495.00
2023-05-01T12:09:22.009Z,770.62
2023-05-01T12:10:21.988Z,759.38
2023-05-01T12:11:22.004Z,562.50
2023-05-01T12:12:21.958Z,540.00
2023-05-01T12:13:21.963Z,416.25
2023-05-01T12:14:21.986Z,455.62
2023-05-01T12:15:21.924Z,523.12
2023-05-01T12:16:21.948Z,472.50
2023-05-01T12:17:22.027Z,472.50
2023-05-01T12:18:21.919Z,528.75
2023-05-01T12:19:22.451Z,720.00
2023-05-01T12:20:21.886Z,714.38
2023-05-01T12:21:21.899Z,781.88
2023-05-01T12:22:21.928Z,810.00
2023-05-01T12:23:21.865Z,675.00
2023-05-01T12:24:21.919Z,489.38
2023-05-01T12:25:21.841Z,495.00
2023-05-01T12:26:21.843Z,461.25
2023-05-01T12:27:21.880Z,489.38
2023-05-01T12:28:21.791Z,573.75
2023-05-01T12:29:21.803Z,590.62
2023-05-01T12:30:21.773Z,534.38
2023-05-01T12:31:21.820Z,511.88
2023-05-01T12:32:21.752Z,517.50
2023-05-01T12:33:21.742Z,607.50
2023-05-01T12:34:21.766Z,663.75
2023-05-01T12:35:21.722Z,675.00
2023-05-01T12:36:21.704Z,607.50
2023-05-01T12:37:21.719Z,545.62
2023-05-01T12:38:21.708Z,495.00
2023-05-01T12:39:21.685Z,450.00
2023-05-01T12:40:21.670Z,489.38
2023-05-01T12:41:21.654Z,455.62
2023-05-01T12:42:21.651Z,433.12
2023-05-01T12:43:21.667Z,382.50
2023-05-01T12:44:21.632Z,405.00
2023-05-01T12:45:21.619Z,410.62
2023-05-01T12:46:21.665Z,433.12
2023-05-01T12:47:21.592Z,478.12
2023-05-01T12:48:21.614Z,528.75
2023-05-01T12:49:21.579Z,528.75
2023-05-01T12:50:21.568Z,511.88